sensor_id;sensor_type;location;lat;lon;timestamp;P1;durP1;ratioP1;P2;durP2;ratioP2
7383;SDS011;3733;47.994;8.820;2023-02-26T00:00:38;4.77;;;2.87;;
7383;SDS011;3733;47.994;8.820;2023-02-26T00:03:04;4.07;;;2.67;;
7383;SDS011;3733;47.994;8.820;2023-02-26T00:05:29;5.03;;;3.50;;
7383;SDS011;3733;47.994;8.820;2023-02-26T00:07:55;3.57;;;3.23;;
7383;SDS011;3733;47.994;8.820;2023-02-26T00:10:21;6.23;;;2.90;;
7383;SDS011;3733;47.994;8.820;2023-02-26T00:12:46;4.53;;;2.90;;
7383;SDS011;3733;47.994;8.820;2023-02-26T00:15:12;5.00;;;2.70;;
7383;SDS011;3733;47.994;8.820;2023-02-26T00:20:28;4.87;;;3.10;;
7383;SDS011;3733;47.994;8.820;2023-02-26T00:22:53;2.67;;;2.47;;
7383;SDS011;3733;47.994;8.820;2023-02-26T00:25:19;5.20;;;3.20;;
7383;SDS011;3733;47.994;8.820;2023-02-26T00:27:45;3.63;;;3.30;;
7383;SDS011;3733;47.994;8.820;2023-02-26T00:30:11;3.33;;;3.00;;
7383;SDS011;3733;47.994;8.820;2023-02-26T00:32:37;4.03;;;3.17;;
7383;SDS011;3733;47.994;8.820;2023-02-26T00:35:04;3.43;;;2.40;;
7383;SDS011;3733;47.994;8.820;2023-02-26T00:43:12;3.47;;;3.00;;
7383;SDS011;3733;47.994;8.820;2023-02-26T00:45:39;4.80;;;3.23;;
7383;SDS011;3733;47.994;8.820;2023-02-26T00:50:49;5.70;;;3.57;;
7383;SDS011;3733;47.994;8.820;2023-02-26T00:53:41;6.03;;;2.70;;
7383;SDS011;3733;47.994;8.820;2023-02-26T00:56:13;3.20;;;2.90;;
7383;SDS011;3733;47.994;8.820;2023-02-26T00:58:39;4.40;;;2.97;;
7383;SDS011;3733;47.994;8.820;2023-02-26T01:01:05;3.23;;;2.93;;
7383;SDS011;3733;47.994;8.820;2023-02-26T01:03:31;5.67;;;3.10;;
7383;SDS011;3733;47.994;8.820;2023-02-26T01:05:57;5.47;;;3.40;;
7383;SDS011;3733;47.994;8.820;2023-02-26T01:08:23;3.33;;;3.03;;
7383;SDS011;3733;47.994;8.820;2023-02-26T01:11:06;5.37;;;3.30;;
7383;SDS011;3733;47.994;8.820;2023-02-26T01:13:32;6.27;;;2.97;;
7383;SDS011;3733;47.994;8.820;2023-02-26T01:16:00;3.00;;;2.70;;
7383;SDS011;3733;47.994;8.820;2023-02-26T01:18:32;3.23;;;2.20;;
7383;SDS011;3733;47.994;8.820;2023-02-26T01:21:09;2.97;;;2.67;;
7383;SDS011;3733;47.994;8.820;2023-02-26T01:23:42;3.27;;;2.73;;
7383;SDS011;3733;47.994;8.820;2023-02-26T01:26:17;2.60;;;2.40;;
7383;SDS011;3733;47.994;8.820;2023-02-26T01:28:47;2.67;;;2.47;;
7383;SDS011;3733;47.994;8.820;2023-02-26T01:34:07;6.07;;;2.70;;
7383;SDS011;3733;47.994;8.820;2023-02-26T01:36:49;5.70;;;2.67;;
7383;SDS011;3733;47.994;8.820;2023-02-26T01:41:54;3.43;;;2.70;;
7383;SDS011;3733;47.994;8.820;2023-02-26T01:47:16;2.70;;;2.40;;
7383;SDS011;3733;47.994;8.820;2023-02-26T01:49:47;2.57;;;2.00;;
7383;SDS011;3733;47.994;8.820;2023-02-26T01:55:17;2.70;;;2.20;;
7383;SDS011;3733;47.994;8.820;2023-02-26T01:57:46;2.87;;;2.50;;
7383;SDS011;3733;47.994;8.820;2023-02-26T02:00:13;2.50;;;2.30;;
7383;SDS011;3733;47.994;8.820;2023-02-26T02:02:40;3.83;;;2.43;;
7383;SDS011;3733;47.994;8.820;2023-02-26T02:05:09;6.80;;;2.07;;
7383;SDS011;3733;47.994;8.820;2023-02-26T02:07:39;2.73;;;2.53;;
7383;SDS011;3733;47.994;8.820;2023-02-26T02:10:04;3.43;;;2.37;;
7383;SDS011;3733;47.994;8.820;2023-02-26T02:12:36;2.57;;;2.33;;
7383;SDS011;3733;47.994;8.820;2023-02-26T02:31:44;6.20;;;2.37;;
7383;SDS011;3733;47.994;8.820;2023-02-26T02:34:27;3.83;;;2.10;;
7383;SDS011;3733;47.994;8.820;2023-02-26T02:37:17;2.37;;;2.17;;
7383;SDS011;3733;47.994;8.820;2023-02-26T02:39:53;3.60;;;2.40;;
7383;SDS011;3733;47.994;8.820;2023-02-26T02:42:37;2.87;;;2.30;;
7383;SDS011;3733;47.994;8.820;2023-02-26T02:45:13;2.73;;;2.20;;
7383;SDS011;3733;47.994;8.820;2023-02-26T02:47:55;4.17;;;2.50;;
7383;SDS011;3733;47.994;8.820;2023-02-26T02:50:28;2.30;;;2.10;;
7383;SDS011;3733;47.994;8.820;2023-02-26T02:53:09;2.50;;;2.30;;
7383;SDS011;3733;47.994;8.820;2023-02-26T02:55:56;7.63;;;2.70;;
7383;SDS011;3733;47.994;8.820;2023-02-26T02:58:28;2.93;;;2.50;;
7383;SDS011;3733;47.994;8.820;2023-02-26T03:00:57;4.10;;;2.30;;
7383;SDS011;3733;47.994;8.820;2023-02-26T03:03:29;5.23;;;2.93;;
7383;SDS011;3733;47.994;8.820;2023-02-26T03:06:14;4.13;;;2.40;;
7383;SDS011;3733;47.994;8.820;2023-02-26T03:08:42;3.17;;;2.23;;
7383;SDS011;3733;47.994;8.820;2023-02-26T03:11:09;4.40;;;2.40;;
7383;SDS011;3733;47.994;8.820;2023-02-26T03:13:35;2.07;;;1.97;;
7383;SDS011;3733;47.994;8.820;2023-02-26T03:19:06;2.67;;;2.47;;
7383;SDS011;3733;47.994;8.820;2023-02-26T03:21:40;2.70;;;2.50;;
7383;SDS011;3733;47.994;8.820;2023-02-26T03:26:55;3.07;;;2.57;;
7383;SDS011;3733;47.994;8.820;2023-02-26T03:32:33;3.67;;;2.20;;
7383;SDS011;3733;47.994;8.820;2023-02-26T03:37:52;4.20;;;2.70;;
7383;SDS011;3733;47.994;8.820;2023-02-26T03:43:06;2.57;;;2.37;;
7383;SDS011;3733;47.994;8.820;2023-02-26T03:45:33;3.93;;;2.40;;
7383;SDS011;3733;47.994;8.820;2023-02-26T03:48:01;3.10;;;2.30;;
7383;SDS011;3733;47.994;8.820;2023-02-26T03:53:09;8.43;;;2.63;;
7383;SDS011;3733;47.994;8.820;2023-02-26T03:55:41;3.13;;;2.37;;
7383;SDS011;3733;47.994;8.820;2023-02-26T03:58:12;5.53;;;2.37;;
7383;SDS011;3733;47.994;8.820;2023-02-26T04:00:38;4.00;;;2.30;;
7383;SDS011;3733;47.994;8.820;2023-02-26T04:03:11;3.83;;;2.40;;
7383;SDS011;3733;47.994;8.820;2023-02-26T04:05:42;2.57;;;2.37;;
7383;SDS011;3733;47.994;8.820;2023-02-26T04:08:12;2.20;;;2.00;;
7383;SDS011;3733;47.994;8.820;2023-02-26T04:13:09;4.77;;;2.67;;
7383;SDS011;3733;47.994;8.820;2023-02-26T04:15:34;3.40;;;3.07;;
7383;SDS011;3733;47.994;8.820;2023-02-26T04:18:00;3.27;;;2.93;;
7383;SDS011;3733;47.994;8.820;2023-02-26T04:20:26;4.23;;;2.97;;
7383;SDS011;3733;47.994;8.820;2023-02-26T04:22:51;3.40;;;2.50;;
7383;SDS011;3733;47.994;8.820;2023-02-26T04:25:17;3.80;;;3.33;;
7383;SDS011;3733;47.994;8.820;2023-02-26T04:27:42;4.97;;;2.60;;
7383;SDS011;3733;47.994;8.820;2023-02-26T04:30:08;4.87;;;2.97;;
7383;SDS011;3733;47.994;8.820;2023-02-26T04:32:34;3.30;;;2.73;;
7383;SDS011;3733;47.994;8.820;2023-02-26T04:35:00;3.87;;;3.30;;
7383;SDS011;3733;47.994;8.820;2023-02-26T04:37:26;3.23;;;2.80;;
7383;SDS011;3733;47.994;8.820;2023-02-26T04:39:51;4.13;;;3.00;;
7383;SDS011;3733;47.994;8.820;2023-02-26T04:42:17;2.93;;;2.73;;
7383;SDS011;3733;47.994;8.820;2023-02-26T04:44:42;3.37;;;3.00;;
7383;SDS011;3733;47.994;8.820;2023-02-26T04:47:08;2.90;;;2.60;;
7383;SDS011;3733;47.994;8.820;2023-02-26T04:49:33;3.00;;;2.70;;
7383;SDS011;3733;47.994;8.820;2023-02-26T04:51:59;4.23;;;3.03;;
7383;SDS011;3733;47.994;8.820;2023-02-26T04:54:25;13.17;;;3.30;;
7383;SDS011;3733;47.994;8.820;2023-02-26T04:56:51;6.33;;;3.80;;
7383;SDS011;3733;47.994;8.820;2023-02-26T04:59:16;3.00;;;2.70;;
7383;SDS011;3733;47.994;8.820;2023-02-26T05:01:42;4.77;;;2.73;;
7383;SDS011;3733;47.994;8.820;2023-02-26T05:04:07;2.77;;;2.57;;
7383;SDS011;3733;47.994;8.820;2023-02-26T05:06:33;4.00;;;2.67;;
7383;SDS011;3733;47.994;8.820;2023-02-26T05:08:59;4.33;;;3.00;;
7383;SDS011;3733;47.994;8.820;2023-02-26T05:11:24;3.83;;;3.40;;
7383;SDS011;3733;47.994;8.820;2023-02-26T05:13:50;8.73;;;2.70;;
7383;SDS011;3733;47.994;8.820;2023-02-26T05:16:16;4.30;;;2.80;;
7383;SDS011;3733;47.994;8.820;2023-02-26T05:18:41;3.00;;;2.63;;
7383;SDS011;3733;47.994;8.820;2023-02-26T05:21:07;4.57;;;2.10;;
7383;SDS011;3733;47.994;8.820;2023-02-26T05:23:32;4.33;;;2.67;;
7383;SDS011;3733;47.994;8.820;2023-02-26T05:25:58;5.93;;;3.00;;
7383;SDS011;3733;47.994;8.820;2023-02-26T05:28:25;4.63;;;2.27;;
7383;SDS011;3733;47.994;8.820;2023-02-26T05:30:51;2.50;;;2.30;;
7383;SDS011;3733;47.994;8.820;2023-02-26T05:33:17;2.47;;;2.27;;
7383;SDS011;3733;47.994;8.820;2023-02-26T05:35:42;9.73;;;2.40;;
7383;SDS011;3733;47.994;8.820;2023-02-26T05:38:09;4.40;;;2.50;;
7383;SDS011;3733;47.994;8.820;2023-02-26T05:40:35;3.13;;;2.60;;
7383;SDS011;3733;47.994;8.820;2023-02-26T05:43:00;5.87;;;2.50;;
7383;SDS011;3733;47.994;8.820;2023-02-26T05:45:26;6.00;;;2.20;;
7383;SDS011;3733;47.994;8.820;2023-02-26T05:47:51;2.77;;;2.30;;
7383;SDS011;3733;47.994;8.820;2023-02-26T05:50:17;3.33;;;2.13;;
7383;SDS011;3733;47.994;8.820;2023-02-26T05:52:43;2.77;;;2.57;;
7383;SDS011;3733;47.994;8.820;2023-02-26T05:55:08;2.23;;;2.00;;
7383;SDS011;3733;47.994;8.820;2023-02-26T05:57:34;3.83;;;2.00;;
7383;SDS011;3733;47.994;8.820;2023-02-26T06:00:00;6.97;;;2.30;;
7383;SDS011;3733;47.994;8.820;2023-02-26T06:02:26;5.70;;;2.03;;
7383;SDS011;3733;47.994;8.820;2023-02-26T06:04:51;1.90;;;1.80;;
7383;SDS011;3733;47.994;8.820;2023-02-26T06:07:17;2.47;;;1.73;;
7383;SDS011;3733;47.994;8.820;2023-02-26T06:09:42;3.30;;;2.23;;
7383;SDS011;3733;47.994;8.820;2023-02-26T06:12:09;8.33;;;2.30;;
7383;SDS011;3733;47.994;8.820;2023-02-26T06:14:35;2.43;;;2.00;;
7383;SDS011;3733;47.994;8.820;2023-02-26T06:17:01;2.63;;;2.17;;
7383;SDS011;3733;47.994;8.820;2023-02-26T06:19:28;9.07;;;2.43;;
7383;SDS011;3733;47.994;8.820;2023-02-26T06:21:54;3.20;;;2.00;;
7383;SDS011;3733;47.994;8.820;2023-02-26T06:24:19;5.17;;;2.10;;
7383;SDS011;3733;47.994;8.820;2023-02-26T06:26:45;6.10;;;1.90;;
7383;SDS011;3733;47.994;8.820;2023-02-26T06:29:10;3.33;;;2.17;;
7383;SDS011;3733;47.994;8.820;2023-02-26T06:31:36;5.50;;;2.23;;
7383;SDS011;3733;47.994;8.820;2023-02-26T06:34:02;2.60;;;2.00;;
7383;SDS011;3733;47.994;8.820;2023-02-26T06:36:27;2.40;;;2.17;;
7383;SDS011;3733;47.994;8.820;2023-02-26T06:38:53;6.20;;;1.97;;
7383;SDS011;3733;47.994;8.820;2023-02-26T06:41:18;1.90;;;1.80;;
7383;SDS011;3733;47.994;8.820;2023-02-26T06:43:44;2.67;;;2.33;;
7383;SDS011;3733;47.994;8.820;2023-02-26T06:46:10;2.67;;;2.47;;
7383;SDS011;3733;47.994;8.820;2023-02-26T06:48:35;7.10;;;2.70;;
7383;SDS011;3733;47.994;8.820;2023-02-26T06:51:01;2.43;;;2.10;;
7383;SDS011;3733;47.994;8.820;2023-02-26T06:53:27;5.07;;;2.07;;
7383;SDS011;3733;47.994;8.820;2023-02-26T06:55:52;2.70;;;2.50;;
7383;SDS011;3733;47.994;8.820;2023-02-26T06:58:18;2.10;;;1.77;;
7383;SDS011;3733;47.994;8.820;2023-02-26T07:00:44;1.97;;;1.87;;
7383;SDS011;3733;47.994;8.820;2023-02-26T07:03:11;4.20;;;1.80;;
7383;SDS011;3733;47.994;8.820;2023-02-26T07:05:38;7.17;;;2.07;;
7383;SDS011;3733;47.994;8.820;2023-02-26T07:08:04;3.40;;;2.30;;
7383;SDS011;3733;47.994;8.820;2023-02-26T07:10:33;1.70;;;1.60;;
7383;SDS011;3733;47.994;8.820;2023-02-26T07:13:00;4.43;;;1.80;;
7383;SDS011;3733;47.994;8.820;2023-02-26T07:15:26;1.80;;;1.70;;
7383;SDS011;3733;47.994;8.820;2023-02-26T07:17:52;2.30;;;1.87;;
7383;SDS011;3733;47.994;8.820;2023-02-26T07:20:18;1.73;;;1.57;;
7383;SDS011;3733;47.994;8.820;2023-02-26T07:22:43;4.10;;;1.73;;
7383;SDS011;3733;47.994;8.820;2023-02-26T07:25:09;2.00;;;1.80;;
7383;SDS011;3733;47.994;8.820;2023-02-26T07:27:36;1.70;;;1.60;;
7383;SDS011;3733;47.994;8.820;2023-02-26T07:30:02;3.30;;;2.30;;
7383;SDS011;3733;47.994;8.820;2023-02-26T07:32:30;1.90;;;1.70;;
7383;SDS011;3733;47.994;8.820;2023-02-26T07:34:56;2.03;;;1.93;;
7383;SDS011;3733;47.994;8.820;2023-02-26T07:37:22;2.37;;;2.10;;
7383;SDS011;3733;47.994;8.820;2023-02-26T07:39:48;1.60;;;1.50;;
7383;SDS011;3733;47.994;8.820;2023-02-26T07:42:14;2.43;;;1.90;;
7383;SDS011;3733;47.994;8.820;2023-02-26T07:44:39;6.33;;;2.30;;
7383;SDS011;3733;47.994;8.820;2023-02-26T07:47:05;1.77;;;1.67;;
7383;SDS011;3733;47.994;8.820;2023-02-26T07:49:31;3.63;;;1.70;;
7383;SDS011;3733;47.994;8.820;2023-02-26T07:51:58;2.50;;;1.80;;
7383;SDS011;3733;47.994;8.820;2023-02-26T07:54:23;2.67;;;1.70;;
7383;SDS011;3733;47.994;8.820;2023-02-26T07:56:49;11.73;;;1.60;;
7383;SDS011;3733;47.994;8.820;2023-02-26T07:59:15;1.67;;;1.57;;
7383;SDS011;3733;47.994;8.820;2023-02-26T08:01:41;3.40;;;1.80;;
7383;SDS011;3733;47.994;8.820;2023-02-26T08:04:06;2.83;;;1.70;;
7383;SDS011;3733;47.994;8.820;2023-02-26T08:06:32;4.03;;;1.80;;
7383;SDS011;3733;47.994;8.820;2023-02-26T08:08:59;2.10;;;1.90;;
7383;SDS011;3733;47.994;8.820;2023-02-26T08:11:25;2.90;;;1.70;;
7383;SDS011;3733;47.994;8.820;2023-02-26T08:13:51;1.90;;;1.80;;
7383;SDS011;3733;47.994;8.820;2023-02-26T08:16:17;4.97;;;1.60;;
7383;SDS011;3733;47.994;8.820;2023-02-26T08:18:43;1.60;;;1.47;;
7383;SDS011;3733;47.994;8.820;2023-02-26T08:21:09;2.17;;;1.50;;
7383;SDS011;3733;47.994;8.820;2023-02-26T08:23:35;3.13;;;1.80;;
7383;SDS011;3733;47.994;8.820;2023-02-26T08:26:02;2.13;;;1.70;;
7383;SDS011;3733;47.994;8.820;2023-02-26T08:28:29;6.63;;;1.57;;
7383;SDS011;3733;47.994;8.820;2023-02-26T08:30:54;4.20;;;1.77;;
7383;SDS011;3733;47.994;8.820;2023-02-26T08:33:20;7.10;;;2.60;;
7383;SDS011;3733;47.994;8.820;2023-02-26T08:35:47;2.20;;;1.60;;
7383;SDS011;3733;47.994;8.820;2023-02-26T08:38:13;1.90;;;1.80;;
7383;SDS011;3733;47.994;8.820;2023-02-26T08:40:38;5.03;;;1.50;;
7383;SDS011;3733;47.994;8.820;2023-02-26T08:43:04;2.90;;;1.93;;
7383;SDS011;3733;47.994;8.820;2023-02-26T08:45:30;2.13;;;1.93;;
7383;SDS011;3733;47.994;8.820;2023-02-26T08:47:55;7.00;;;2.20;;
7383;SDS011;3733;47.994;8.820;2023-02-26T08:50:21;3.53;;;1.87;;
7383;SDS011;3733;47.994;8.820;2023-02-26T08:52:46;3.67;;;2.70;;
7383;SDS011;3733;47.994;8.820;2023-02-26T08:55:12;2.43;;;1.83;;
7383;SDS011;3733;47.994;8.820;2023-02-26T08:57:38;5.60;;;2.27;;
7383;SDS011;3733;47.994;8.820;2023-02-26T09:00:04;1.67;;;1.57;;
7383;SDS011;3733;47.994;8.820;2023-02-26T09:02:34;2.93;;;1.80;;
7383;SDS011;3733;47.994;8.820;2023-02-26T09:05:00;2.20;;;1.70;;
7383;SDS011;3733;47.994;8.820;2023-02-26T09:07:26;3.33;;;1.83;;
7383;SDS011;3733;47.994;8.820;2023-02-26T09:09:52;3.77;;;2.00;;
7383;SDS011;3733;47.994;8.820;2023-02-26T09:12:18;1.90;;;1.80;;
7383;SDS011;3733;47.994;8.820;2023-02-26T09:14:43;1.70;;;1.60;;
7383;SDS011;3733;47.994;8.820;2023-02-26T09:17:09;1.70;;;1.60;;
7383;SDS011;3733;47.994;8.820;2023-02-26T09:19:34;2.83;;;2.30;;
7383;SDS011;3733;47.994;8.820;2023-02-26T09:22:00;1.97;;;1.37;;
7383;SDS011;3733;47.994;8.820;2023-02-26T09:24:26;3.47;;;1.60;;
7383;SDS011;3733;47.994;8.820;2023-02-26T09:26:51;3.40;;;1.80;;
7383;SDS011;3733;47.994;8.820;2023-02-26T09:29:17;2.20;;;1.40;;
7383;SDS011;3733;47.994;8.820;2023-02-26T09:31:42;2.03;;;1.80;;
7383;SDS011;3733;47.994;8.820;2023-02-26T09:34:08;1.87;;;1.70;;
7383;SDS011;3733;47.994;8.820;2023-02-26T09:36:34;5.27;;;1.70;;
7383;SDS011;3733;47.994;8.820;2023-02-26T09:39:01;1.63;;;1.50;;
7383;SDS011;3733;47.994;8.820;2023-02-26T09:41:29;5.40;;;2.00;;
7383;SDS011;3733;47.994;8.820;2023-02-26T09:50:00;3.00;;;1.73;;
7383;SDS011;3733;47.994;8.820;2023-02-26T09:52:42;1.93;;;1.83;;
7383;SDS011;3733;47.994;8.820;2023-02-26T09:55:14;1.93;;;1.60;;
7383;SDS011;3733;47.994;8.820;2023-02-26T09:57:53;1.70;;;1.60;;
7383;SDS011;3733;47.994;8.820;2023-02-26T10:00:28;1.47;;;1.37;;
7383;SDS011;3733;47.994;8.820;2023-02-26T10:11:28;2.30;;;1.67;;
7383;SDS011;3733;47.994;8.820;2023-02-26T10:14:02;3.50;;;1.73;;
7383;SDS011;3733;47.994;8.820;2023-02-26T10:16:35;2.53;;;1.90;;
7383;SDS011;3733;47.994;8.820;2023-02-26T10:19:05;2.27;;;2.07;;
7383;SDS011;3733;47.994;8.820;2023-02-26T10:21:36;4.70;;;2.30;;
7383;SDS011;3733;47.994;8.820;2023-02-26T10:24:12;2.60;;;1.90;;
7383;SDS011;3733;47.994;8.820;2023-02-26T10:26:50;3.20;;;1.87;;
7383;SDS011;3733;47.994;8.820;2023-02-26T10:40:15;3.40;;;1.80;;
7383;SDS011;3733;47.994;8.820;2023-02-26T10:48:32;1.93;;;1.67;;
7383;SDS011;3733;47.994;8.820;2023-02-26T10:50:59;1.93;;;1.83;;
7383;SDS011;3733;47.994;8.820;2023-02-26T10:53:33;2.00;;;1.90;;
7383;SDS011;3733;47.994;8.820;2023-02-26T10:56:07;1.93;;;1.70;;
7383;SDS011;3733;47.994;8.820;2023-02-26T10:58:37;2.13;;;1.87;;
7383;SDS011;3733;47.994;8.820;2023-02-26T11:01:03;2.10;;;2.00;;
7383;SDS011;3733;47.994;8.820;2023-02-26T11:03:41;4.03;;;2.10;;
7383;SDS011;3733;47.994;8.820;2023-02-26T11:06:11;1.83;;;1.73;;
7383;SDS011;3733;47.994;8.820;2023-02-26T11:08:53;2.00;;;1.80;;
7383;SDS011;3733;47.994;8.820;2023-02-26T11:14:10;1.70;;;1.60;;
7383;SDS011;3733;47.994;8.820;2023-02-26T11:16:40;1.83;;;1.73;;
7383;SDS011;3733;47.994;8.820;2023-02-26T11:19:14;2.20;;;1.83;;
7383;SDS011;3733;47.994;8.820;2023-02-26T11:21:42;9.10;;;1.50;;
7383;SDS011;3733;47.994;8.820;2023-02-26T11:24:19;2.20;;;2.00;;
7383;SDS011;3733;47.994;8.820;2023-02-26T11:26:55;2.80;;;1.97;;
7383;SDS011;3733;47.994;8.820;2023-02-26T11:29:24;8.33;;;2.37;;
7383;SDS011;3733;47.994;8.820;2023-02-26T11:31:53;2.43;;;2.20;;
7383;SDS011;3733;47.994;8.820;2023-02-26T11:34:22;5.53;;;2.50;;
7383;SDS011;3733;47.994;8.820;2023-02-26T11:36:49;2.40;;;2.20;;
7383;SDS011;3733;47.994;8.820;2023-02-26T11:41:47;1.80;;;1.70;;
7383;SDS011;3733;47.994;8.820;2023-02-26T11:44:16;2.30;;;2.20;;
7383;SDS011;3733;47.994;8.820;2023-02-26T11:46:50;3.17;;;2.20;;
7383;SDS011;3733;47.994;8.820;2023-02-26T11:49:19;2.00;;;1.90;;
7383;SDS011;3733;47.994;8.820;2023-02-26T11:51:49;1.90;;;1.80;;
7383;SDS011;3733;47.994;8.820;2023-02-26T11:54:45;3.00;;;2.00;;
7383;SDS011;3733;47.994;8.820;2023-02-26T11:57:23;2.33;;;2.07;;
7383;SDS011;3733;47.994;8.820;2023-02-26T11:59:52;3.80;;;2.00;;
7383;SDS011;3733;47.994;8.820;2023-02-26T12:02:20;4.43;;;1.87;;
7383;SDS011;3733;47.994;8.820;2023-02-26T12:04:48;2.83;;;1.60;;
7383;SDS011;3733;47.994;8.820;2023-02-26T12:07:17;1.77;;;1.67;;
7383;SDS011;3733;47.994;8.820;2023-02-26T12:09:44;1.80;;;1.70;;
7383;SDS011;3733;47.994;8.820;2023-02-26T12:20:23;2.80;;;1.67;;
7383;SDS011;3733;47.994;8.820;2023-02-26T12:33:32;2.23;;;1.83;;
7383;SDS011;3733;47.994;8.820;2023-02-26T12:41:57;2.40;;;2.20;;
7383;SDS011;3733;47.994;8.820;2023-02-26T12:53:32;3.03;;;2.63;;
7383;SDS011;3733;47.994;8.820;2023-02-26T13:17:43;2.70;;;2.50;;
7383;SDS011;3733;47.994;8.820;2023-02-26T13:20:35;4.13;;;2.30;;
7383;SDS011;3733;47.994;8.820;2023-02-26T13:25:42;2.33;;;2.03;;
7383;SDS011;3733;47.994;8.820;2023-02-26T13:28:49;2.20;;;2.00;;
7383;SDS011;3733;47.994;8.820;2023-02-26T13:31:29;2.40;;;2.20;;
7383;SDS011;3733;47.994;8.820;2023-02-26T13:34:05;1.97;;;1.87;;
7383;SDS011;3733;47.994;8.820;2023-02-26T13:36:39;3.10;;;2.10;;
7383;SDS011;3733;47.994;8.820;2023-02-26T13:39:09;2.77;;;2.57;;
7383;SDS011;3733;47.994;8.820;2023-02-26T13:44:39;3.87;;;2.10;;
7383;SDS011;3733;47.994;8.820;2023-02-26T13:47:40;2.00;;;1.80;;
7383;SDS011;3733;47.994;8.820;2023-02-26T13:52:48;2.30;;;2.10;;
7383;SDS011;3733;47.994;8.820;2023-02-26T14:00:47;2.60;;;2.40;;
7383;SDS011;3733;47.994;8.820;2023-02-26T14:08:54;7.87;;;3.37;;
7383;SDS011;3733;47.994;8.820;2023-02-26T14:16:50;2.70;;;2.50;;
7383;SDS011;3733;47.994;8.820;2023-02-26T14:19:39;2.80;;;2.60;;
7383;SDS011;3733;47.994;8.820;2023-02-26T14:27:32;3.80;;;3.20;;
7383;SDS011;3733;47.994;8.820;2023-02-26T14:35:26;4.10;;;3.80;;
7383;SDS011;3733;47.994;8.820;2023-02-26T14:38:05;2.47;;;2.27;;
7383;SDS011;3733;47.994;8.820;2023-02-26T14:40:53;2.63;;;2.43;;
7383;SDS011;3733;47.994;8.820;2023-02-26T14:43:41;2.43;;;2.20;;
7383;SDS011;3733;47.994;8.820;2023-02-26T14:46:07;2.20;;;2.10;;
7383;SDS011;3733;47.994;8.820;2023-02-26T14:48:34;2.60;;;2.30;;
7383;SDS011;3733;47.994;8.820;2023-02-26T14:56:59;2.63;;;2.43;;
7383;SDS011;3733;47.994;8.820;2023-02-26T15:02:31;3.33;;;2.30;;
7383;SDS011;3733;47.994;8.820;2023-02-26T15:13:45;2.20;;;2.10;;
7383;SDS011;3733;47.994;8.820;2023-02-26T15:16:26;4.17;;;2.10;;
7383;SDS011;3733;47.994;8.820;2023-02-26T15:24:16;2.30;;;2.10;;
7383;SDS011;3733;47.994;8.820;2023-02-26T15:26:50;2.33;;;2.13;;
7383;SDS011;3733;47.994;8.820;2023-02-26T15:29:20;4.33;;;2.00;;
7383;SDS011;3733;47.994;8.820;2023-02-26T15:31:53;3.73;;;3.30;;
7383;SDS011;3733;47.994;8.820;2023-02-26T15:34:21;2.50;;;2.13;;
7383;SDS011;3733;47.994;8.820;2023-02-26T15:36:49;2.10;;;1.90;;
7383;SDS011;3733;47.994;8.820;2023-02-26T15:39:16;2.50;;;2.30;;
7383;SDS011;3733;47.994;8.820;2023-02-26T15:41:46;3.37;;;2.67;;
7383;SDS011;3733;47.994;8.820;2023-02-26T15:44:14;2.10;;;1.87;;
7383;SDS011;3733;47.994;8.820;2023-02-26T15:46:44;2.20;;;2.10;;
7383;SDS011;3733;47.994;8.820;2023-02-26T15:51:49;2.20;;;1.90;;
7383;SDS011;3733;47.994;8.820;2023-02-26T15:54:18;2.67;;;2.47;;
7383;SDS011;3733;47.994;8.820;2023-02-26T15:56:46;2.67;;;2.47;;
7383;SDS011;3733;47.994;8.820;2023-02-26T15:59:17;3.07;;;2.77;;
7383;SDS011;3733;47.994;8.820;2023-02-26T16:01:47;2.60;;;2.40;;
7383;SDS011;3733;47.994;8.820;2023-02-26T16:04:15;3.10;;;2.50;;
7383;SDS011;3733;47.994;8.820;2023-02-26T16:06:43;2.00;;;1.90;;
7383;SDS011;3733;47.994;8.820;2023-02-26T16:09:17;2.30;;;2.10;;
7383;SDS011;3733;47.994;8.820;2023-02-26T16:12:02;2.10;;;2.00;;
7383;SDS011;3733;47.994;8.820;2023-02-26T16:14:36;2.10;;;1.90;;
7383;SDS011;3733;47.994;8.820;2023-02-26T16:17:04;1.80;;;1.70;;
7383;SDS011;3733;47.994;8.820;2023-02-26T16:19:34;2.20;;;2.00;;
7383;SDS011;3733;47.994;8.820;2023-02-26T16:22:05;2.00;;;1.90;;
7383;SDS011;3733;47.994;8.820;2023-02-26T16:24:39;2.50;;;2.30;;
7383;SDS011;3733;47.994;8.820;2023-02-26T16:27:06;3.37;;;2.20;;
7383;SDS011;3733;47.994;8.820;2023-02-26T16:29:36;2.53;;;2.33;;
7383;SDS011;3733;47.994;8.820;2023-02-26T16:32:12;4.03;;;2.47;;
7383;SDS011;3733;47.994;8.820;2023-02-26T16:40:15;2.87;;;2.57;;
7383;SDS011;3733;47.994;8.820;2023-02-26T16:42:59;2.90;;;2.50;;
7383;SDS011;3733;47.994;8.820;2023-02-26T16:48:08;2.60;;;2.10;;
7383;SDS011;3733;47.994;8.820;2023-02-26T16:50:38;2.60;;;2.40;;
7383;SDS011;3733;47.994;8.820;2023-02-26T16:53:10;2.80;;;2.50;;
7383;SDS011;3733;47.994;8.820;2023-02-26T16:55:40;2.30;;;2.10;;
7383;SDS011;3733;47.994;8.820;2023-02-26T16:58:11;6.00;;;2.50;;
7383;SDS011;3733;47.994;8.820;2023-02-26T17:00:39;2.30;;;2.10;;
7383;SDS011;3733;47.994;8.820;2023-02-26T17:05:39;6.97;;;2.50;;
7383;SDS011;3733;47.994;8.820;2023-02-26T17:08:17;2.90;;;2.60;;
7383;SDS011;3733;47.994;8.820;2023-02-26T17:13:18;2.87;;;2.20;;
7383;SDS011;3733;47.994;8.820;2023-02-26T17:15:50;2.67;;;2.47;;
7383;SDS011;3733;47.994;8.820;2023-02-26T17:18:18;3.00;;;2.30;;
7383;SDS011;3733;47.994;8.820;2023-02-26T17:20:44;6.80;;;4.40;;
7383;SDS011;3733;47.994;8.820;2023-02-26T17:23:12;7.20;;;3.83;;
7383;SDS011;3733;47.994;8.820;2023-02-26T17:25:41;10.30;;;4.20;;
7383;SDS011;3733;47.994;8.820;2023-02-26T17:28:09;4.27;;;3.00;;
7383;SDS011;3733;47.994;8.820;2023-02-26T17:30:41;2.87;;;2.43;;
7383;SDS011;3733;47.994;8.820;2023-02-26T17:33:08;2.73;;;2.53;;
7383;SDS011;3733;47.994;8.820;2023-02-26T17:35:36;3.27;;;2.40;;
7383;SDS011;3733;47.994;8.820;2023-02-26T17:38:02;2.67;;;2.10;;
7383;SDS011;3733;47.994;8.820;2023-02-26T17:40:30;2.20;;;2.00;;
7383;SDS011;3733;47.994;8.820;2023-02-26T17:43:00;2.00;;;1.90;;
7383;SDS011;3733;47.994;8.820;2023-02-26T17:45:28;2.30;;;2.07;;
7383;SDS011;3733;47.994;8.820;2023-02-26T17:47:57;1.87;;;1.77;;
7383;SDS011;3733;47.994;8.820;2023-02-26T17:53:08;2.10;;;2.00;;
7383;SDS011;3733;47.994;8.820;2023-02-26T17:55:35;4.07;;;2.17;;
7383;SDS011;3733;47.994;8.820;2023-02-26T17:58:03;2.37;;;2.17;;
7383;SDS011;3733;47.994;8.820;2023-02-26T18:00:37;1.90;;;1.80;;
7383;SDS011;3733;47.994;8.820;2023-02-26T18:03:06;5.03;;;1.80;;
7383;SDS011;3733;47.994;8.820;2023-02-26T18:05:32;1.83;;;1.73;;
7383;SDS011;3733;47.994;8.820;2023-02-26T18:08:03;2.73;;;1.83;;
7383;SDS011;3733;47.994;8.820;2023-02-26T18:10:30;2.53;;;2.03;;
7383;SDS011;3733;47.994;8.820;2023-02-26T18:12:56;4.53;;;2.10;;
7383;SDS011;3733;47.994;8.820;2023-02-26T18:15:23;2.73;;;2.20;;
7383;SDS011;3733;47.994;8.820;2023-02-26T18:17:50;1.90;;;1.80;;
7383;SDS011;3733;47.994;8.820;2023-02-26T18:20:20;1.93;;;1.80;;
7383;SDS011;3733;47.994;8.820;2023-02-26T18:22:51;2.23;;;2.03;;
7383;SDS011;3733;47.994;8.820;2023-02-26T18:25:16;3.10;;;2.47;;
7383;SDS011;3733;47.994;8.820;2023-02-26T18:27:42;3.07;;;2.10;;
7383;SDS011;3733;47.994;8.820;2023-02-26T18:30:14;1.97;;;1.87;;
7383;SDS011;3733;47.994;8.820;2023-02-26T18:32:46;2.57;;;1.97;;
7383;SDS011;3733;47.994;8.820;2023-02-26T18:35:11;2.47;;;2.10;;
7383;SDS011;3733;47.994;8.820;2023-02-26T18:37:37;2.53;;;1.90;;
7383;SDS011;3733;47.994;8.820;2023-02-26T18:40:03;2.23;;;2.00;;
7383;SDS011;3733;47.994;8.820;2023-02-26T18:42:29;2.30;;;1.90;;
7383;SDS011;3733;47.994;8.820;2023-02-26T18:44:56;3.43;;;2.60;;
7383;SDS011;3733;47.994;8.820;2023-02-26T18:47:22;2.20;;;2.00;;
7383;SDS011;3733;47.994;8.820;2023-02-26T18:49:48;2.10;;;2.00;;
7383;SDS011;3733;47.994;8.820;2023-02-26T18:52:14;2.50;;;2.30;;
7383;SDS011;3733;47.994;8.820;2023-02-26T18:54:40;1.87;;;1.77;;
7383;SDS011;3733;47.994;8.820;2023-02-26T18:57:06;2.50;;;2.17;;
7383;SDS011;3733;47.994;8.820;2023-02-26T18:59:33;2.70;;;2.50;;
7383;SDS011;3733;47.994;8.820;2023-02-26T19:01:59;2.50;;;2.30;;
7383;SDS011;3733;47.994;8.820;2023-02-26T19:04:26;4.30;;;2.13;;
7383;SDS011;3733;47.994;8.820;2023-02-26T19:06:53;2.40;;;2.20;;
7383;SDS011;3733;47.994;8.820;2023-02-26T19:09:19;2.60;;;2.10;;
7383;SDS011;3733;47.994;8.820;2023-02-26T19:11:45;2.50;;;2.17;;
7383;SDS011;3733;47.994;8.820;2023-02-26T19:14:11;2.50;;;2.30;;